createdAt,value
2019-01-21T00:01:35.599Z,16.17
2019-01-21T00:04:06.097Z,15.70
2019-01-21T00:06:36.255Z,17.73
2019-01-21T00:09:08.629Z,16.63
2019-01-21T00:11:38.665Z,14.67
2019-01-21T00:14:08.767Z,16.47
2019-01-21T00:16:38.964Z,17.83
2019-01-21T00:19:09.169Z,15.23
2019-01-21T00:21:39.845Z,15.33
2019-01-21T00:24:09.949Z,16.77
2019-01-21T00:26:39.997Z,15.97
2019-01-21T00:29:10.139Z,15.53
2019-01-21T00:31:40.307Z,16.23
2019-01-21T00:34:10.541Z,18.63
2019-01-21T00:36:40.791Z,15.00
2019-01-21T00:39:11.001Z,15.13
2019-01-21T00:41:41.107Z,17.50
2019-01-21T00:44:11.274Z,16.60
2019-01-21T00:46:41.431Z,13.37
2019-01-21T00:49:11.513Z,13.73
2019-01-21T00:51:41.764Z,14.03
2019-01-21T00:54:12.000Z,15.77
2019-01-21T00:56:42.889Z,13.97
2019-01-21T00:59:13.023Z,14.87
2019-01-21T01:01:43.247Z,15.00
2019-01-21T01:04:13.429Z,14.10
2019-01-21T01:06:43.635Z,16.57
2019-01-21T01:09:13.721Z,17.20
2019-01-21T01:11:43.804Z,14.63
2019-01-21T01:14:14.037Z,15.63
2019-01-21T01:16:44.220Z,15.17
2019-01-21T01:19:14.321Z,15.03
2019-01-21T01:21:44.533Z,15.53
2019-01-21T01:24:15.721Z,16.73
2019-01-21T01:26:45.800Z,16.73
2019-01-21T01:29:16.164Z,16.00
2019-01-21T01:31:46.294Z,15.73
2019-01-21T01:34:16.374Z,13.63
2019-01-21T01:36:46.540Z,16.23
2019-01-21T01:39:16.944Z,13.40
2019-01-21T01:41:47.174Z,14.47
2019-01-21T01:44:17.442Z,15.87
2019-01-21T01:46:47.663Z,16.00
2019-01-21T01:49:17.812Z,14.03
2019-01-21T01:51:47.923Z,15.90
2019-01-21T01:54:18.319Z,15.63
2019-01-21T01:56:48.471Z,15.03
2019-01-21T01:59:18.531Z,16.43
2019-01-21T02:01:48.710Z,14.50
2019-01-21T02:04:19.154Z,15.27
2019-01-21T02:06:49.355Z,15.00
2019-01-21T02:09:19.426Z,14.07
2019-01-21T02:11:49.520Z,16.00
2019-01-21T02:14:19.669Z,15.27
2019-01-21T02:16:49.904Z,15.27
2019-01-21T02:19:22.212Z,16.93
2019-01-21T02:21:55.370Z,15.10
2019-01-21T02:24:28.010Z,15.90
2019-01-21T02:27:17.521Z,16.17
2019-01-21T02:30:38.439Z,15.63
2019-01-21T02:33:33.805Z,13.50
2019-01-21T02:36:32.933Z,15.37
2019-01-21T02:39:40.632Z,14.03
2019-01-21T02:42:16.449Z,14.30
2019-01-21T02:45:06.916Z,13.90
2019-01-21T02:48:03.649Z,14.90
2019-01-21T02:51:15.790Z,16.80
2019-01-21T02:54:25.900Z,16.07
2019-01-21T02:57:32.163Z,14.50
2019-01-21T03:00:55.595Z,13.57
2019-01-21T03:03:56.196Z,15.03
2019-01-21T03:06:49.665Z,12.73
2019-01-21T03:09:50.497Z,17.87
2019-01-21T03:13:12.439Z,14.20
2019-01-21T03:16:38.071Z,13.73
2019-01-21T03:19:37.354Z,14.50
2019-01-21T03:22:42.670Z,16.20
2019-01-21T03:25:45.810Z,14.40
2019-01-21T03:28:58.366Z,18.17
2019-01-21T03:31:59.150Z,17.47
2019-01-21T03:35:09.751Z,16.00
2019-01-21T03:38:27.137Z,18.67
2019-01-21T03:41:18.165Z,19.77
2019-01-21T03:44:38.079Z,19.10
2019-01-21T03:47:24.081Z,18.93
2019-01-21T03:50:22.851Z,19.70
2019-01-21T03:53:11.483Z,17.60
2019-01-21T03:55:41.765Z,19.10
2019-01-21T03:58:49.089Z,18.37
2019-01-21T04:02:02.114Z,19.40
2019-01-21T04:05:25.362Z,15.93
2019-01-21T04:08:15.852Z,17.37
2019-01-21T04:11:11.570Z,20.03
2019-01-21T04:14:08.166Z,18.47
2019-01-21T04:17:40.040Z,19.73
2019-01-21T04:20:54.196Z,20.17
2019-01-21T04:24:17.025Z,19.43
2019-01-21T04:26:55.270Z,18.10
2019-01-21T04:30:01.920Z,21.10
2019-01-21T04:33:11.222Z,19.97
2019-01-21T04:36:29.796Z,19.87
2019-01-21T04:39:07.474Z,18.97
2019-01-21T04:41:52.592Z,21.00
2019-01-21T04:44:49.126Z,19.00
2019-01-21T04:47:48.204Z,20.80
2019-01-21T04:50:31.560Z,18.93
2019-01-21T04:53:24.847Z,18.40
2019-01-21T04:56:22.047Z,19.97
2019-01-21T04:59:43.859Z,20.53
2019-01-21T05:02:52.435Z,20.63
2019-01-21T05:05:47.421Z,20.60
2019-01-21T05:09:13.404Z,22.93
2019-01-21T05:12:33.373Z,18.80
2019-01-21T05:15:52.529Z,20.67
2019-01-21T05:19:12.095Z,16.60
2019-01-21T05:22:22.711Z,20.77
2019-01-21T05:25:45.357Z,20.57
2019-01-21T05:28:49.054Z,18.23
2019-01-21T05:31:54.072Z,19.27
2019-01-21T05:35:05.855Z,20.13
2019-01-21T05:37:57.719Z,18.67
2019-01-21T05:41:03.323Z,20.47
2019-01-21T05:44:29.989Z,19.73
2019-01-21T05:47:44.201Z,19.10
2019-01-21T05:50:31.572Z,20.43
2019-01-21T05:53:51.438Z,18.63
2019-01-21T05:56:56.203Z,19.10
2019-01-21T06:00:03.894Z,20.50
2019-01-21T06:03:06.597Z,23.10
2019-01-21T06:06:35.843Z,22.60
2019-01-21T06:09:44.376Z,18.33
2019-01-21T06:13:13.513Z,24.80
2019-01-21T06:16:18.272Z,19.33
2019-01-21T06:19:15.886Z,18.60
2019-01-21T06:22:32.048Z,18.67
2019-01-21T06:25:28.964Z,22.77
2019-01-21T06:28:40.681Z,23.60
2019-01-21T06:31:52.225Z,20.20
2019-01-21T06:35:04.915Z,18.40
2019-01-21T06:38:03.390Z,25.60
2019-01-21T06:40:45.872Z,23.30
2019-01-21T06:43:38.190Z,23.17
2019-01-21T06:46:50.436Z,23.67
2019-01-21T06:49:50.297Z,22.07
2019-01-21T06:53:00.632Z,21.80
2019-01-21T06:56:09.077Z,23.07
2019-01-21T06:59:07.323Z,24.30
2019-01-21T07:02:08.928Z,21.90
2019-01-21T07:05:23.005Z,19.70
2019-01-21T07:08:24.673Z,21.93
2019-01-21T07:11:17.623Z,20.43
2019-01-21T07:14:16.536Z,23.37
2019-01-21T07:17:13.891Z,23.00
2019-01-21T07:20:29.914Z,20.10
2019-01-21T07:23:35.494Z,22.87
2019-01-21T07:26:41.003Z,22.63
2019-01-21T07:29:53.762Z,22.33
2019-01-21T07:32:54.550Z,24.10
2019-01-21T07:35:43.869Z,23.53
2019-01-21T07:38:58.649Z,23.63
2019-01-21T07:42:12.969Z,24.37
2019-01-21T07:45:16.047Z,21.77
2019-01-21T07:48:11.241Z,19.13
2019-01-21T07:51:31.666Z,21.20
2019-01-21T07:54:19.697Z,22.83
2019-01-21T07:57:35.163Z,23.87
2019-01-21T08:00:35.007Z,22.40
2019-01-21T08:03:49.122Z,24.63
2019-01-21T08:06:47.011Z,23.17
2019-01-21T08:09:40.392Z,20.57
2019-01-21T08:12:54.391Z,23.33
2019-01-21T08:16:21.249Z,22.63
2019-01-21T08:19:47.394Z,22.50
2019-01-21T08:23:04.592Z,21.90
2019-01-21T08:26:00.490Z,24.50
2019-01-21T08:29:08.941Z,23.90
2019-01-21T08:32:25.742Z,25.97
2019-01-21T08:35:33.377Z,25.00
2019-01-21T08:38:57.699Z,23.17
2019-01-21T08:41:50.744Z,23.97
2019-01-21T08:44:47.164Z,25.20
2019-01-21T08:47:57.244Z,24.40
2019-01-21T08:50:53.825Z,24.47
2019-01-21T08:54:02.262Z,24.47
2019-01-21T08:57:14.017Z,28.10
2019-01-21T09:00:13.298Z,26.70
2019-01-21T09:03:23.460Z,25.93
2019-01-21T09:06:24.631Z,27.63
2019-01-21T09:09:18.584Z,26.03
2019-01-21T09:12:34.035Z,23.77
2019-01-21T09:15:26.915Z,25.77
2019-01-21T09:18:32.647Z,23.87
2019-01-21T09:21:42.171Z,23.63
2019-01-21T09:24:52.281Z,24.83
2019-01-21T09:28:09.453Z,21.13
2019-01-21T09:31:12.868Z,23.30
2019-01-21T09:34:11.769Z,24.90
2019-01-21T09:37:10.205Z,23.00
2019-01-21T09:40:39.232Z,23.37
2019-01-21T09:44:01.015Z,24.03
2019-01-21T09:46:50.847Z,21.90
2019-01-21T09:49:19.368Z,22.37
2019-01-21T09:52:08.091Z,25.40
2019-01-21T09:54:39.556Z,39.00
2019-01-21T09:57:13.575Z,23.87
2019-01-21T09:59:44.020Z,21.77
2019-01-21T10:02:15.677Z,25.07
2019-01-21T10:04:59.500Z,23.67
2019-01-21T10:07:57.931Z,22.57
2019-01-21T10:11:03.166Z,23.33
2019-01-21T10:14:12.465Z,22.03
2019-01-21T10:17:08.474Z,22.10
2019-01-21T10:20:19.241Z,19.77
2019-01-21T10:23:20.920Z,19.47
2019-01-21T10:26:49.933Z,20.77
2019-01-21T10:29:31.446Z,21.67
2019-01-21T10:32:37.030Z,20.93
2019-01-21T10:35:53.392Z,20.87
2019-01-21T10:38:57.125Z,21.77
2019-01-21T10:42:08.141Z,23.67
2019-01-21T10:45:12.735Z,22.13
2019-01-21T10:48:11.473Z,20.30
2019-01-21T10:51:01.521Z,18.17
2019-01-21T10:53:55.788Z,19.97
2019-01-21T10:57:13.312Z,19.90
2019-01-21T11:00:09.901Z,18.63
2019-01-21T11:03:11.302Z,18.60
2019-01-21T11:06:18.116Z,19.77
2019-01-21T11:09:26.925Z,20.53
2019-01-21T11:12:49.947Z,17.93
2019-01-21T11:15:43.851Z,17.93
2019-01-21T11:18:42.243Z,17.40
2019-01-21T11:21:40.633Z,17.27
2019-01-21T11:24:58.983Z,17.17
2019-01-21T11:28:12.784Z,15.03
2019-01-21T11:31:11.105Z,16.37
2019-01-21T11:34:12.590Z,16.00
2019-01-21T11:37:08.066Z,17.67
2019-01-21T11:40:13.721Z,16.77
2019-01-21T11:43:12.889Z,17.47
2019-01-21T11:46:17.965Z,16.53
2019-01-21T11:49:35.096Z,16.63
2019-01-21T11:52:52.347Z,15.33
2019-01-21T11:55:53.201Z,14.13
2019-01-21T11:58:52.581Z,16.43
2019-01-21T12:01:52.225Z,18.43
2019-01-21T12:04:53.276Z,17.60
2019-01-21T12:07:59.240Z,17.53
2019-01-21T12:11:07.715Z,18.00
2019-01-21T12:14:04.214Z,19.07
2019-01-21T12:17:30.472Z,15.20
2019-01-21T12:20:35.554Z,16.30
2019-01-21T12:23:40.332Z,16.07
2019-01-21T12:26:47.416Z,16.33
2019-01-21T12:29:47.832Z,17.40
2019-01-21T12:32:40.269Z,14.80
2019-01-21T12:35:57.537Z,14.37
2019-01-21T12:39:14.931Z,15.40
2019-01-21T12:42:34.504Z,14.57
2019-01-21T12:45:44.752Z,17.60
2019-01-21T12:48:45.787Z,16.50
2019-01-21T12:51:46.543Z,17.63
2019-01-21T12:54:54.737Z,14.60
2019-01-21T12:58:12.085Z,15.73
2019-01-21T13:01:00.730Z,16.67
2019-01-21T13:04:11.127Z,15.30
2019-01-21T13:07:07.352Z,16.37
2019-01-21T13:10:13.430Z,16.17
2019-01-21T13:13:30.789Z,14.47
2019-01-21T13:16:30.852Z,16.20
2019-01-21T13:19:29.669Z,15.40
2019-01-21T13:22:36.379Z,16.93
2019-01-21T13:25:35.709Z,16.00
2019-01-21T13:28:38.535Z,16.67
2019-01-21T13:31:59.351Z,16.63
2019-01-21T13:35:08.695Z,17.00
2019-01-21T13:38:12.169Z,16.57
2019-01-21T13:41:19.374Z,16.90
2019-01-21T13:44:22.444Z,16.80
2019-01-21T13:47:29.260Z,17.60
2019-01-21T13:50:14.082Z,16.50
2019-01-21T13:53:21.063Z,17.43
2019-01-21T13:56:13.349Z,18.03
2019-01-21T13:59:38.734Z,17.27
2019-01-21T14:02:33.324Z,16.93
2019-01-21T14:05:31.151Z,15.67
2019-01-21T14:08:37.218Z,19.80
2019-01-21T14:11:44.408Z,15.23
2019-01-21T14:14:31.481Z,14.83
2019-01-21T14:17:50.698Z,17.13
2019-01-21T14:20:52.255Z,18.07
2019-01-21T14:23:51.501Z,17.37
2019-01-21T14:27:04.380Z,16.03
2019-01-21T14:30:03.388Z,16.33
2019-01-21T14:33:30.345Z,16.07
2019-01-21T14:36:51.276Z,16.43
2019-01-21T14:40:02.285Z,15.77
2019-01-21T14:43:17.699Z,17.83
2019-01-21T14:46:26.571Z,16.93
2019-01-21T14:49:18.869Z,17.70
2019-01-21T14:52:18.740Z,17.33
2019-01-21T14:55:27.511Z,16.13
2019-01-21T14:58:47.456Z,17.83
2019-01-21T15:01:57.601Z,16.07
2019-01-21T15:05:07.640Z,15.67
2019-01-21T15:08:02.649Z,16.97
2019-01-21T15:10:53.734Z,16.17
2019-01-21T15:13:53.375Z,16.03
2019-01-21T15:17:01.788Z,18.00
2019-01-21T15:19:44.683Z,18.20
2019-01-21T15:23:11.034Z,17.83
2019-01-21T15:26:16.147Z,17.73
2019-01-21T15:29:12.129Z,16.43
2019-01-21T15:32:05.514Z,16.23
2019-01-21T15:35:22.796Z,16.40
2019-01-21T15:38:24.005Z,15.43
2019-01-21T15:41:30.165Z,18.10
2019-01-21T15:44:09.361Z,19.33
2019-01-21T15:47:37.182Z,18.53
2019-01-21T15:50:50.870Z,17.27
2019-01-21T15:53:46.976Z,17.97
2019-01-21T15:57:13.205Z,18.43
2019-01-21T16:00:06.374Z,18.40
2019-01-21T16:02:56.184Z,18.13
2019-01-21T16:05:34.986Z,19.00
2019-01-21T16:08:14.999Z,19.10
2019-01-21T16:11:19.050Z,18.10
2019-01-21T16:14:05.999Z,20.40
2019-01-21T16:17:10.776Z,22.00
2019-01-21T16:20:23.911Z,22.43
2019-01-21T16:23:54.963Z,21.50
2019-01-21T16:26:50.711Z,22.20
2019-01-21T16:29:41.379Z,21.83
2019-01-21T16:32:23.261Z,22.00
2019-01-21T16:35:31.825Z,22.73
2019-01-21T16:38:16.439Z,22.43
2019-01-21T16:41:22.653Z,22.07
2019-01-21T16:43:52.965Z,22.70
2019-01-21T16:46:23.350Z,20.97
2019-01-21T16:48:53.576Z,23.17
2019-01-21T16:51:23.765Z,21.57
2019-01-21T16:53:53.954Z,21.67
2019-01-21T16:56:24.454Z,22.50
2019-01-21T16:58:54.682Z,21.67
2019-01-21T17:01:26.600Z,22.80
2019-01-21T17:03:57.047Z,23.23
2019-01-21T17:06:28.372Z,23.13
2019-01-21T17:08:59.336Z,21.00
2019-01-21T17:11:30.544Z,25.60
2019-01-21T17:14:01.361Z,26.63
2019-01-21T17:16:32.861Z,24.23
2019-01-21T17:19:06.313Z,23.63
2019-01-21T17:21:37.378Z,23.23
2019-01-21T17:24:08.505Z,24.37
2019-01-21T17:26:40.335Z,24.63
2019-01-21T17:29:11.349Z,23.37
2019-01-21T17:31:42.441Z,24.93
2019-01-21T17:34:14.424Z,24.07
2019-01-21T17:36:45.892Z,22.17
2019-01-21T17:39:16.561Z,25.33
2019-01-21T17:41:47.140Z,23.13
2019-01-21T17:44:17.577Z,21.37
2019-01-21T17:46:47.765Z,22.40
2019-01-21T17:49:17.789Z,22.03
2019-01-21T17:51:48.040Z,21.50
2019-01-21T17:54:18.404Z,22.47
2019-01-21T17:56:48.586Z,21.33
2019-01-21T17:59:18.991Z,19.90
2019-01-21T18:01:49.313Z,20.50
2019-01-21T18:04:19.514Z,20.70
2019-01-21T18:06:49.762Z,21.77
2019-01-21T18:09:20.071Z,21.17
2019-01-21T18:11:50.211Z,23.73
2019-01-21T18:14:20.483Z,23.40
2019-01-21T18:16:50.650Z,22.73
2019-01-21T18:19:20.931Z,22.03
2019-01-21T18:21:51.207Z,22.53
2019-01-21T18:24:21.484Z,22.03
2019-01-21T18:26:51.705Z,22.83
2019-01-21T18:29:21.849Z,23.17
2019-01-21T18:31:52.067Z,21.23
2019-01-21T18:34:22.575Z,21.77
2019-01-21T18:36:52.884Z,21.77
2019-01-21T18:39:23.051Z,21.43
2019-01-21T18:41:53.328Z,21.70
2019-01-21T18:44:23.507Z,22.03
2019-01-21T18:46:54.022Z,24.53
2019-01-21T18:49:24.336Z,22.80
2019-01-21T18:51:54.851Z,25.77
2019-01-21T18:54:25.274Z,25.93
2019-01-21T18:56:55.499Z,24.87
2019-01-21T18:59:25.747Z,23.67
2019-01-21T19:01:55.957Z,23.47
2019-01-21T19:04:26.179Z,23.63
2019-01-21T19:06:56.403Z,25.57
2019-01-21T19:09:26.723Z,24.70
2019-01-21T19:11:56.949Z,23.70
2019-01-21T19:14:27.237Z,24.23
2019-01-21T19:16:57.350Z,25.03
2019-01-21T19:19:27.436Z,25.17
2019-01-21T19:21:57.560Z,30.00
2019-01-21T19:24:27.818Z,28.00
2019-01-21T19:26:57.989Z,27.87
2019-01-21T19:29:28.081Z,25.57
2019-01-21T19:31:58.279Z,24.13
2019-01-21T19:34:28.330Z,26.47
2019-01-21T19:36:58.520Z,27.13
2019-01-21T19:39:28.644Z,27.43
2019-01-21T19:41:58.891Z,26.43
2019-01-21T19:44:29.143Z,24.20
2019-01-21T19:46:59.371Z,24.70
2019-01-21T19:49:29.900Z,26.97
2019-01-21T19:52:00.374Z,24.17
2019-01-21T19:54:31.993Z,23.60
2019-01-21T19:57:02.195Z,24.47
2019-01-21T19:59:32.468Z,26.67
2019-01-21T20:02:02.678Z,25.00
2019-01-21T20:04:32.931Z,28.13
2019-01-21T20:07:03.515Z,25.97
2019-01-21T20:09:33.710Z,26.90
2019-01-21T20:12:03.930Z,29.07
2019-01-21T20:14:34.148Z,27.70
2019-01-21T20:17:04.324Z,29.30
2019-01-21T20:19:34.574Z,32.20
2019-01-21T20:22:07.953Z,34.10
2019-01-21T20:24:36.785Z,32.60
2019-01-21T20:27:07.262Z,26.40
2019-01-21T20:29:37.429Z,27.70
2019-01-21T20:32:08.364Z,28.60
2019-01-21T20:34:39.470Z,27.13
2019-01-21T20:37:09.846Z,27.77
2019-01-21T20:39:40.056Z,26.17
2019-01-21T20:42:10.228Z,25.93
2019-01-21T20:44:40.421Z,27.10
2019-01-21T20:47:10.492Z,27.63
2019-01-21T20:49:40.715Z,25.87
2019-01-21T20:52:14.167Z,25.20
2019-01-21T20:54:43.114Z,26.17
2019-01-21T20:57:13.315Z,23.13
2019-01-21T20:59:43.499Z,26.87
2019-01-21T21:02:13.714Z,26.83
2019-01-21T21:04:44.970Z,27.07
2019-01-21T21:07:15.371Z,27.70
2019-01-21T21:10:05.712Z,28.97
2019-01-21T21:12:36.142Z,27.23
2019-01-21T21:15:09.691Z,29.03
2019-01-21T21:17:40.305Z,28.40
2019-01-21T21:20:11.735Z,26.00
2019-01-21T21:22:42.667Z,26.03
2019-01-21T21:25:14.289Z,27.93
2019-01-21T21:27:44.502Z,27.63
2019-01-21T21:30:23.447Z,30.87
2019-01-21T21:32:53.567Z,29.80
2019-01-21T21:35:24.195Z,27.13
2019-01-21T21:37:54.333Z,27.53
2019-01-21T21:40:25.073Z,26.07
2019-01-21T21:42:55.286Z,25.57
2019-01-21T21:45:26.110Z,28.07
2019-01-21T21:48:00.966Z,24.30
2019-01-21T21:50:31.752Z,25.77
2019-01-21T21:53:01.996Z,25.17
2019-01-21T21:55:32.440Z,24.87
2019-01-21T21:58:02.668Z,24.07
2019-01-21T22:00:32.878Z,23.63
2019-01-21T22:03:03.171Z,25.30
2019-01-21T22:05:33.595Z,23.63
2019-01-21T22:08:03.883Z,26.63
2019-01-21T22:10:34.475Z,24.10
2019-01-21T22:13:04.621Z,25.60
2019-01-21T22:15:35.718Z,23.90
2019-01-21T22:18:05.909Z,27.40
2019-01-21T22:20:36.045Z,24.77
2019-01-21T22:23:06.336Z,29.73
2019-01-21T22:25:36.821Z,24.53
2019-01-21T22:28:06.971Z,25.97
2019-01-21T22:30:37.089Z,27.07
2019-01-21T22:33:07.326Z,27.90
2019-01-21T22:35:37.557Z,26.00
2019-01-21T22:38:07.720Z,25.63
2019-01-21T22:40:37.967Z,24.20
2019-01-21T22:43:08.280Z,25.17
2019-01-21T22:45:38.533Z,27.57
2019-01-21T22:48:08.794Z,26.37
2019-01-21T22:50:39.083Z,24.20
2019-01-21T22:53:09.368Z,24.90
2019-01-21T22:55:39.563Z,26.90
2019-01-21T22:58:10.022Z,24.37
2019-01-21T23:00:54.025Z,26.33
2019-01-21T23:03:25.914Z,26.97
2019-01-21T23:05:56.491Z,26.13
2019-01-21T23:08:26.729Z,24.70
2019-01-21T23:10:56.871Z,24.27
2019-01-21T23:13:27.037Z,25.50
2019-01-21T23:15:57.166Z,24.67
2019-01-21T23:18:27.377Z,24.60
2019-01-21T23:20:57.607Z,23.67
2019-01-21T23:23:27.705Z,21.23
2019-01-21T23:25:59.109Z,22.57
2019-01-21T23:28:29.404Z,22.20
2019-01-21T23:30:59.616Z,18.63
2019-01-21T23:33:30.121Z,22.33
2019-01-21T23:36:00.761Z,22.30
2019-01-21T23:38:30.870Z,25.40
2019-01-21T23:41:47.128Z,22.67
2019-01-21T23:44:36.351Z,20.87
2019-01-21T23:47:17.925Z,23.60
2019-01-21T23:49:59.839Z,19.90
2019-01-21T23:52:42.042Z,21.87
2019-01-21T23:55:23.408Z,22.07
2019-01-21T23:58:05.356Z,21.17
